Time;durP1;ratioP1;P1;durP2;ratioP2;P2;SDS_P1;SDS_P2;PMS_P1;PMS_P2;Temp;Humidity;BMP_temperature;BMP_pressure;BME280_temperature;BME280_humidity;BME280_pressure;Samples;Min_cycle;Max_cycle;Signal;HPM_P1;HPM_P2
2022/01/18 00:01:22;;;;;;;29.15;8.00;;;7.10;99.90;;;;;;4915481;28;90297;-30
2022/01/18 00:03:48;;;;;;;45.53;10.60;;;7.10;99.90;;;;;;4915920;28;89977;-30
2022/01/18 00:06:14;;;;;;;29.67;8.45;;;7.10;99.90;;;;;;4914437;28;90615;-31
2022/01/18 00:08:39;;;;;;;34.08;8.95;;;7.00;99.90;;;;;;4915976;28;87526;-30
2022/01/18 00:11:06;;;;;;;36.45;8.93;;;7.00;99.90;;;;;;4915389;28;89539;-30
2022/01/18 00:18:36;;;;;;;33.72;8.20;;;6.80;99.90;;;;;;4915735;28;88236;-32
2022/01/18 00:23:33;;;;;;;31.60;8.27;;;6.70;99.90;;;;;;4918995;28;89525;-31
2022/01/18 00:25:59;;;;;;;38.72;9.07;;;6.70;99.90;;;;;;4918870;28;88335;-32
2022/01/18 00:28:27;;;;;;;34.88;8.65;;;6.90;99.90;;;;;;4919202;28;89050;-30
2022/01/18 00:36:29;;;;;;;32.63;9.73;;;6.90;99.90;;;;;;4918275;28;89854;-32
2022/01/18 00:38:56;;;;;;;34.20;8.60;;;6.90;99.90;;;;;;4918646;28;88157;-33
2022/01/18 00:41:24;;;;;;;39.03;8.20;;;6.90;99.90;;;;;;4918693;28;90517;-32
2022/01/18 00:43:50;;;;;;;26.77;7.82;;;6.90;99.90;;;;;;4918296;28;90983;-30
2022/01/18 00:46:16;;;;;;;37.30;7.90;;;6.90;99.90;;;;;;4917754;28;90059;-30
2022/01/18 00:48:42;;;;;;;46.90;10.27;;;7.00;99.90;;;;;;4918568;28;88130;-29
2022/01/18 00:51:12;;;;;;;41.80;9.10;;;7.00;99.90;;;;;;4917152;28;90475;-30
2022/01/18 00:53:42;;;;;;;42.38;10.10;;;7.10;99.90;;;;;;4918766;28;89243;-30
2022/01/18 00:58:53;;;;;;;38.45;9.35;;;7.20;99.90;;;;;;4918715;28;87408;-30
2022/01/18 01:01:21;;;;;;;34.45;8.88;;;7.30;99.90;;;;;;4918413;28;89741;-31
2022/01/18 01:03:48;;;;;;;41.35;9.52;;;7.40;99.90;;;;;;4918413;28;90033;-31
2022/01/18 01:06:14;;;;;;;42.30;8.85;;;7.40;99.90;;;;;;4917908;28;89435;-29
2022/01/18 01:08:40;;;;;;;28.25;8.52;;;7.40;99.90;;;;;;4917870;28;89030;-32
2022/01/18 01:11:08;;;;;;;37.15;7.07;;;7.50;99.90;;;;;;4918470;28;90722;-28
2022/01/18 01:13:35;;;;;;;28.58;8.25;;;7.50;99.90;;;;;;4917941;28;89438;-33
2022/01/18 01:16:16;;;;;;;31.30;8.30;;;7.40;99.90;;;;;;4917931;28;89252;-30
2022/01/18 01:19:03;;;;;;;28.23;7.60;;;7.40;99.90;;;;;;4918373;28;87448;-29
2022/01/18 01:43:31;;;;;;;36.60;9.23;;;7.30;99.90;;;;;;4895867;28;90706;-33
2022/01/18 01:45:58;;;;;;;32.30;7.97;;;7.20;99.90;;;;;;4908866;28;89538;-30
2022/01/18 01:48:25;;;;;;;30.95;7.05;;;7.30;99.90;;;;;;4917801;28;89441;-31
2022/01/18 01:50:55;;;;;;;28.20;8.13;;;7.20;99.90;;;;;;4917369;28;87828;-31
2022/01/18 01:53:23;;;;;;;29.40;8.40;;;7.20;99.90;;;;;;4918011;28;88875;-32
2022/01/18 01:55:50;;;;;;;32.00;8.50;;;7.20;99.90;;;;;;4917511;28;89250;-30
2022/01/18 01:58:18;;;;;;;31.70;8.05;;;7.20;99.90;;;;;;4900014;28;89410;-29
2022/01/18 02:00:47;;;;;;;39.05;9.10;;;7.30;99.90;;;;;;4917701;28;87885;-29
2022/01/18 02:03:14;;;;;;;40.92;9.48;;;7.20;99.90;;;;;;4917290;28;90073;-31
2022/01/18 02:05:40;;;;;;;34.95;9.43;;;7.20;99.90;;;;;;4917548;28;89615;-31
2022/01/18 02:08:08;;;;;;;36.05;9.00;;;7.20;99.90;;;;;;4916977;28;89866;-32
2022/01/18 02:10:38;;;;;;;29.38;10.48;;;7.20;99.90;;;;;;4917833;28;87761;-30
2022/01/18 02:13:06;;;;;;;36.45;10.02;;;7.20;99.90;;;;;;4916163;28;90152;-30
2022/01/18 02:15:32;;;;;;;42.50;8.53;;;7.10;99.90;;;;;;4916382;28;89822;-30
2022/01/18 02:23:29;;;;;;;35.10;8.55;;;7.10;99.90;;;;;;4917248;28;90679;-31
2022/01/18 02:25:55;;;;;;;32.28;8.70;;;7.20;99.90;;;;;;4916267;28;91048;-32
2022/01/18 02:28:23;;;;;;;36.80;7.70;;;7.10;99.90;;;;;;4916806;28;90920;-31
2022/01/18 02:30:49;;;;;;;29.88;9.55;;;7.00;99.90;;;;;;4917236;28;87472;-30
2022/01/18 02:33:15;;;;;;;36.13;7.53;;;7.00;99.90;;;;;;4916603;28;90145;-31
2022/01/18 02:35:41;;;;;;;29.08;8.35;;;6.90;99.90;;;;;;4917088;28;89797;-30
2022/01/18 02:38:07;;;;;;;19.42;7.95;;;7.00;99.90;;;;;;4916227;28;89423;-31
2022/01/18 02:40:33;;;;;;;28.73;8.32;;;6.90;99.90;;;;;;4917363;28;87299;-31
2022/01/18 02:43:46;;;;;;;25.77;7.57;;;6.90;99.90;;;;;;4915846;28;90648;-32
2022/01/18 02:45:47;;;;;;;24.52;8.68;;;6.90;99.90;;;;;;4916469;28;91078;-32
2022/01/18 02:48:14;;;;;;;30.58;9.88;;;6.90;99.90;;;;;;4916049;28;89385;-30
2022/01/18 02:50:40;;;;;;;32.78;9.98;;;6.90;99.90;;;;;;4916696;28;87981;-29
2022/01/18 02:53:06;;;;;;;27.23;9.38;;;6.80;99.90;;;;;;4915711;28;90570;-32
2022/01/18 02:55:32;;;;;;;38.67;8.95;;;6.80;99.90;;;;;;4916565;28;90113;-31
2022/01/18 02:58:03;;;;;;;40.83;9.75;;;6.80;99.90;;;;;;4916317;28;88505;-31
2022/01/18 03:03:10;;;;;;;35.00;10.50;;;6.90;99.90;;;;;;4916684;28;87979;-28
2022/01/18 03:03:21;;;;;;;40.70;9.05;;;6.90;99.90;;;;;;4915716;28;90356;-31
2022/01/18 03:05:47;;;;;;;33.40;8.35;;;6.90;99.90;;;;;;4916093;28;90132;-31
2022/01/18 03:08:13;;;;;;;36.50;8.80;;;6.90;99.90;;;;;;4916201;28;89696;-30
2022/01/18 03:10:40;;;;;;;31.40;9.10;;;6.80;99.90;;;;;;4916990;28;87568;-32
2022/01/18 03:13:07;;;;;;;33.17;9.48;;;6.80;99.90;;;;;;4916368;28;90406;-31
2022/01/18 03:15:34;;;;;;;33.38;8.50;;;6.80;99.90;;;;;;4915681;28;91238;-31
2022/01/18 03:18:01;;;;;;;21.58;7.78;;;6.80;99.90;;;;;;4915866;28;89303;-36
2022/01/18 03:20:27;;;;;;;30.52;9.15;;;6.70;99.90;;;;;;4916471;28;87396;-31
2022/01/18 03:22:53;;;;;;;29.02;8.65;;;6.80;99.90;;;;;;4916244;28;90213;-29
2022/01/18 03:28:06;;;;;;;41.67;9.07;;;6.80;99.90;;;;;;4915699;28;88418;-31
2022/01/18 03:30:37;;;;;;;39.20;8.68;;;6.80;99.90;;;;;;4916503;28;87596;-30
2022/01/18 03:33:05;;;;;;;28.27;8.25;;;6.70;99.90;;;;;;4915428;28;90329;-33
2022/01/18 03:35:31;;;;;;;24.98;8.05;;;6.80;99.90;;;;;;4916133;28;90055;-32
2022/01/18 03:37:57;;;;;;;28.50;8.07;;;6.80;99.90;;;;;;4916050;28;88578;-30
2022/01/18 03:40:23;;;;;;;29.20;8.35;;;6.80;99.90;;;;;;4915624;28;87937;-33
2022/01/18 03:42:49;;;;;;;27.92;8.82;;;6.70;99.90;;;;;;4915086;28;90814;-31
2022/01/18 03:45:21;;;;;;;26.08;8.63;;;6.70;99.90;;;;;;4915346;28;89846;-30
2022/01/18 03:47:47;;;;;;;29.20;9.27;;;6.70;99.90;;;;;;4915733;28;88654;-30
2022/01/18 03:50:14;;;;;;;21.17;8.43;;;6.70;99.90;;;;;;4916188;28;87666;-31
2022/01/18 03:52:41;;;;;;;31.70;8.23;;;6.70;99.90;;;;;;4915826;28;89987;-31
2022/01/18 03:55:09;;;;;;;27.77;8.02;;;6.70;99.90;;;;;;4915034;28;90515;-30
2022/01/18 03:57:35;;;;;;;28.15;8.90;;;6.70;99.90;;;;;;4915779;28;89497;-30
2022/01/18 04:00:00;;;;;;;33.92;8.50;;;6.60;99.90;;;;;;4916324;28;87523;-30
2022/01/18 04:02:26;;;;;;;25.55;7.82;;;6.60;99.90;;;;;;4915298;28;90231;-31
2022/01/18 04:04:52;;;;;;;31.83;9.05;;;6.70;99.90;;;;;;4915258;28;90532;-30
2022/01/18 04:07:18;;;;;;;24.42;8.13;;;6.70;99.90;;;;;;4915487;28;90368;-29
2022/01/18 04:09:43;;;;;;;16.58;6.70;;;6.60;99.90;;;;;;4916398;28;87499;-30
2022/01/18 04:12:09;;;;;;;24.60;7.18;;;6.70;99.90;;;;;;4915296;28;90212;-30
2022/01/18 04:14:35;;;;;;;21.23;7.80;;;6.70;99.90;;;;;;4915526;28;90490;-30
2022/01/18 04:17:30;;;;;;;19.20;7.15;;;6.60;99.90;;;;;;4916053;28;88652;-30
2022/01/18 04:28:21;;;;;;;24.48;7.40;;;6.60;99.90;;;;;;4915262;28;89510;-30
2022/01/18 04:30:46;;;;;;;21.23;6.53;;;6.60;99.90;;;;;;4915048;28;87954;-32
2022/01/18 04:33:12;;;;;;;27.30;7.60;;;6.60;99.90;;;;;;4915288;28;90310;-31
2022/01/18 04:35:38;;;;;;;20.98;5.28;;;6.60;99.90;;;;;;4915176;28;89840;-33
2022/01/18 04:38:03;;;;;;;21.80;6.28;;;6.60;99.90;;;;;;4915546;28;89276;-36
2022/01/18 04:40:31;;;;;;;33.92;6.22;;;6.60;99.90;;;;;;4915551;28;87541;-31
2022/01/18 04:50:50;;;;;;;23.30;5.55;;;6.60;99.90;;;;;;4910747;28;88863;-30
2022/01/18 04:53:16;;;;;;;15.65;5.60;;;6.60;99.90;;;;;;4895907;28;88888;-30
2022/01/18 04:55:42;;;;;;;18.45;6.90;;;6.60;99.90;;;;;;4895115;28;90995;-33
2022/01/18 04:58:08;;;;;;;24.73;6.47;;;6.50;99.90;;;;;;4895520;28;90731;-31
2022/01/18 05:00:34;;;;;;;20.75;5.82;;;6.60;99.90;;;;;;4895808;28;88333;-28
2022/01/18 05:02:59;;;;;;;22.30;6.55;;;6.60;99.90;;;;;;4896052;28;89075;-30
2022/01/18 05:05:27;;;;;;;17.63;5.50;;;6.60;99.90;;;;;;4895431;28;88715;-29
2022/01/18 05:07:59;;;;;;;21.25;6.93;;;6.60;99.90;;;;;;4896798;28;89498;-31
2022/01/18 05:10:27;;;;;;;21.52;5.88;;;6.60;99.90;;;;;;4899268;28;88402;-31
2022/01/18 05:12:55;;;;;;;19.42;6.10;;;6.50;99.90;;;;;;4899396;28;89752;-30
2022/01/18 05:20:54;;;;;;;19.50;6.43;;;6.60;99.90;;;;;;4898742;28;87775;-31
2022/01/18 05:23:19;;;;;;;18.58;5.78;;;6.50;99.90;;;;;;4898653;28;90793;-29
2022/01/18 05:25:46;;;;;;;24.90;5.68;;;6.50;99.90;;;;;;4898688;28;89911;-29
2022/01/18 05:28:13;;;;;;;18.33;6.38;;;6.50;99.90;;;;;;4898069;28;89746;-34
2022/01/18 05:30:40;;;;;;;18.92;7.20;;;6.50;99.90;;;;;;4903866;28;87519;-32
2022/01/18 05:33:06;;;;;;;26.90;7.15;;;6.40;99.90;;;;;;4917797;28;90482;-30
2022/01/18 05:35:32;;;;;;;26.10;7.68;;;6.40;99.90;;;;;;4917236;28;89730;-32
2022/01/18 05:37:58;;;;;;;24.58;6.60;;;6.40;99.90;;;;;;4917633;28;88686;-33
2022/01/18 05:40:24;;;;;;;25.85;6.53;;;6.40;99.90;;;;;;4914157;28;88246;-28
2022/01/18 05:42:50;;;;;;;14.15;5.70;;;6.40;99.90;;;;;;4901822;28;90673;-31
2022/01/18 05:45:16;;;;;;;20.70;6.05;;;6.40;99.90;;;;;;4897690;28;90700;-30
2022/01/18 05:47:42;;;;;;;26.35;7.60;;;6.40;99.90;;;;;;4897301;28;90495;-30
2022/01/18 05:50:10;;;;;;;19.73;6.85;;;6.30;99.90;;;;;;4896895;28;87454;-30
2022/01/18 05:52:36;;;;;;;24.27;5.77;;;6.30;99.90;;;;;;4897614;28;90403;-31
2022/01/18 05:55:02;;;;;;;17.85;6.18;;;6.30;99.90;;;;;;4898400;28;88395;-30
2022/01/18 05:57:28;;;;;;;30.73;6.05;;;6.30;99.90;;;;;;4897920;28;88765;-30
2022/01/18 06:00:01;;;;;;;18.40;6.93;;;6.30;99.90;;;;;;4898964;28;88616;-30
2022/01/18 06:07:40;;;;;;;11.40;4.85;;;6.30;99.90;;;;;;4898337;28;90080;-30
2022/01/18 06:10:05;;;;;;;25.95;6.60;;;6.30;99.90;;;;;;4897989;28;88236;-30
2022/01/18 06:12:32;;;;;;;11.55;4.40;;;6.20;99.90;;;;;;4897934;28;90368;-32
2022/01/18 06:14:58;;;;;;;18.92;5.40;;;6.20;99.90;;;;;;4898417;28;88943;-32
2022/01/18 06:17:24;;;;;;;17.45;5.38;;;6.20;99.90;;;;;;4897716;28;89066;-30
2022/01/18 06:19:49;;;;;;;18.50;6.13;;;6.20;99.90;;;;;;4897846;28;87445;-30
2022/01/18 06:22:15;;;;;;;20.95;5.63;;;6.20;99.90;;;;;;4897677;28;90362;-30
2022/01/18 06:24:41;;;;;;;19.15;4.97;;;6.20;99.90;;;;;;4898286;28;89620;-29
2022/01/18 06:27:07;;;;;;;22.30;6.78;;;6.20;99.90;;;;;;4898252;28;89476;-32
2022/01/18 06:29:33;;;;;;;14.82;4.78;;;6.20;99.90;;;;;;4896046;28;87795;-30
2022/01/18 06:31:58;;;;;;;19.83;5.00;;;6.20;99.90;;;;;;4881319;28;90591;-31
2022/01/18 06:34:24;;;;;;;17.00;5.50;;;6.20;99.90;;;;;;4896677;28;91384;-31
2022/01/18 06:36:50;;;;;;;22.52;5.95;;;6.20;99.90;;;;;;4897954;28;90487;-30
2022/01/18 06:39:18;;;;;;;20.50;5.13;;;6.20;99.90;;;;;;4897437;28;87486;-30
2022/01/18 06:41:44;;;;;;;24.77;6.25;;;6.20;99.90;;;;;;4897863;28;88903;-31
2022/01/18 06:44:10;;;;;;;24.13;6.15;;;6.20;99.90;;;;;;4897050;28;88890;-34
2022/01/18 06:46:36;;;;;;;18.48;5.30;;;6.20;99.90;;;;;;4897585;28;89731;-30
2022/01/18 06:49:01;;;;;;;13.02;5.28;;;6.20;99.90;;;;;;4897915;28;87414;-31
2022/01/18 06:51:27;;;;;;;13.68;5.22;;;6.20;99.90;;;;;;4896999;28;89902;-35
2022/01/18 06:53:53;;;;;;;10.55;4.47;;;6.20;99.90;;;;;;4897419;28;89626;-29
2022/01/18 06:56:20;;;;;;;13.73;4.35;;;6.20;99.90;;;;;;4895135;28;88280;-33
2022/01/18 06:58:46;;;;;;;16.70;4.13;;;6.20;99.90;;;;;;4897536;28;89526;-30
2022/01/18 07:01:13;;;;;;;15.75;5.20;;;6.20;99.90;;;;;;4896921;28;90311;-32
2022/01/18 07:03:39;;;;;;;18.23;4.40;;;6.20;99.90;;;;;;4897380;28;89602;-32
2022/01/18 07:06:05;;;;;;;23.42;5.50;;;6.20;99.90;;;;;;4897099;28;88824;-31
2022/01/18 07:08:31;;;;;;;12.07;4.85;;;6.20;99.90;;;;;;4897110;28;87367;-32
2022/01/18 07:10:57;;;;;;;16.55;5.18;;;6.20;99.90;;;;;;4897614;28;89994;-30
2022/01/18 07:13:23;;;;;;;14.88;4.70;;;6.20;99.90;;;;;;4896825;28;89347;-31
2022/01/18 07:15:49;;;;;;;16.67;5.15;;;6.20;99.90;;;;;;4897580;28;89648;-29
2022/01/18 07:18:15;;;;;;;17.60;4.35;;;6.20;99.90;;;;;;4880062;28;87346;-32
2022/01/18 07:20:41;;;;;;;17.58;5.35;;;6.20;99.90;;;;;;4895974;28;90272;-30
2022/01/18 07:23:11;;;;;;;10.70;4.05;;;6.20;99.90;;;;;;4896384;28;90932;-29
2022/01/18 07:25:42;;;;;;;12.07;3.75;;;6.20;99.90;;;;;;4897208;28;90196;-31
2022/01/18 07:28:09;;;;;;;12.32;4.50;;;6.20;99.90;;;;;;4897531;28;87492;-31
2022/01/18 07:30:34;;;;;;;13.30;4.30;;;6.20;99.90;;;;;;4895710;28;90651;-31
2022/01/18 07:33:00;;;;;;;18.38;7.28;;;6.10;99.90;;;;;;4896768;28;89247;-30
2022/01/18 07:35:27;;;;;;;13.27;4.75;;;6.20;99.90;;;;;;4897120;28;89086;-30
2022/01/18 07:37:52;;;;;;;10.07;3.95;;;6.10;99.90;;;;;;4896921;28;87534;-30
2022/01/18 07:40:18;;;;;;;11.70;3.13;;;6.20;99.90;;;;;;4897144;28;89943;-31
2022/01/18 07:42:44;;;;;;;17.73;4.47;;;6.10;99.90;;;;;;4896495;28;89360;-30
2022/01/18 07:45:09;;;;;;;17.77;4.85;;;6.20;99.90;;;;;;4896743;28;90139;-30
2022/01/18 07:47:35;;;;;;;20.80;4.95;;;6.10;99.90;;;;;;4896263;28;87870;-31
2022/01/18 07:50:01;;;;;;;11.50;4.45;;;6.20;99.90;;;;;;4896886;28;90335;-32
2022/01/18 07:52:26;;;;;;;20.05;5.00;;;6.20;99.90;;;;;;4896440;28;88828;-32
2022/01/18 07:54:52;;;;;;;19.88;5.03;;;6.20;99.90;;;;;;4896349;28;89464;-30
2022/01/18 07:57:19;;;;;;;15.90;5.05;;;6.20;99.90;;;;;;4896699;28;87351;-32
2022/01/18 07:59:45;;;;;;;14.18;5.03;;;6.20;99.90;;;;;;4896173;28;90587;-30
2022/01/18 08:02:10;;;;;;;7.00;3.17;;;6.20;99.90;;;;;;4896702;28;89477;-31
2022/01/18 08:04:36;;;;;;;9.80;4.18;;;6.20;99.90;;;;;;4896232;28;89567;-30
2022/01/18 08:07:02;;;;;;;16.13;4.03;;;6.10;99.90;;;;;;4896514;28;88277;-32
2022/01/18 08:09:28;;;;;;;10.52;3.85;;;6.20;99.90;;;;;;4895962;28;89216;-30
2022/01/18 08:11:53;;;;;;;14.10;3.83;;;6.20;99.90;;;;;;4896192;28;90429;-31
2022/01/18 08:14:20;;;;;;;16.02;4.13;;;6.20;99.90;;;;;;4896238;28;91029;-31
2022/01/18 08:16:49;;;;;;;13.07;4.13;;;6.20;99.90;;;;;;4896450;28;87582;-30
2022/01/18 08:19:16;;;;;;;13.40;4.03;;;6.20;99.90;;;;;;4896508;28;90086;-31
2022/01/18 08:21:42;;;;;;;19.40;4.25;;;6.20;99.90;;;;;;4898405;28;89006;-32
2022/01/18 08:24:09;;;;;;;17.05;3.90;;;6.20;99.90;;;;;;4906243;28;89046;-32
2022/01/18 08:26:34;;;;;;;12.13;3.67;;;6.20;99.90;;;;;;4901083;28;87522;-33
2022/01/18 08:29:00;;;;;;;17.77;3.63;;;6.20;99.90;;;;;;4895910;28;90169;-29
2022/01/18 08:31:26;;;;;;;11.65;4.38;;;6.30;99.90;;;;;;4895717;28;88519;-30
2022/01/18 08:33:51;;;;;;;17.65;4.57;;;6.30;99.90;;;;;;4896020;28;89713;-31
2022/01/18 08:36:17;;;;;;;13.07;4.05;;;6.30;99.90;;;;;;4895865;28;89115;-31
2022/01/18 08:38:43;;;;;;;12.15;4.07;;;6.30;99.90;;;;;;4898146;28;90397;-32
2022/01/18 08:41:09;;;;;;;12.85;4.22;;;6.30;99.90;;;;;;4908291;28;89567;-29
2022/01/18 08:43:36;;;;;;;16.02;4.45;;;6.30;99.90;;;;;;4917378;28;89459;-34
2022/01/18 08:46:03;;;;;;;14.90;4.63;;;6.30;99.90;;;;;;4918277;28;87724;-30
2022/01/18 08:48:29;;;;;;;17.63;4.03;;;6.40;99.90;;;;;;4904140;28;90630;-32
2022/01/18 08:50:55;;;;;;;20.80;4.05;;;6.40;99.90;;;;;;4906079;28;89520;-31
2022/01/18 08:53:21;;;;;;;11.55;3.75;;;6.40;99.90;;;;;;4906161;28;89440;-30
2022/01/18 08:55:46;;;;;;;12.77;5.65;;;6.40;99.90;;;;;;4905356;28;87447;-32
2022/01/18 08:58:12;;;;;;;9.23;4.07;;;6.40;99.90;;;;;;4899207;28;90087;-31
2022/01/18 09:00:38;;;;;;;17.13;5.32;;;6.40;99.90;;;;;;4895988;28;89621;-32
2022/01/18 09:03:05;;;;;;;12.35;5.65;;;6.40;99.90;;;;;;4896721;28;90306;-30
2022/01/18 09:05:31;;;;;;;12.30;5.18;;;6.40;99.90;;;;;;4899633;28;88746;-32
2022/01/18 09:08:01;;;;;;;14.13;5.75;;;6.40;99.90;;;;;;4905833;28;87818;-31
2022/01/18 09:10:26;;;;;;;10.85;4.78;;;6.50;99.90;;;;;;4899129;28;89733;-30
2022/01/18 09:12:52;;;;;;;15.57;5.85;;;6.50;99.90;;;;;;4897252;28;88780;-32
2022/01/18 09:15:18;;;;;;;14.85;4.75;;;6.50;99.90;;;;;;4896698;28;87771;-30
2022/01/18 09:17:43;;;;;;;13.02;4.75;;;6.50;99.90;;;;;;4865419;28;90434;-33
2022/01/18 09:20:12;;;;;;;16.30;4.75;;;6.50;99.90;;;;;;4905654;28;89707;-29
2022/01/18 09:22:40;;;;;;;13.65;5.30;;;6.60;99.90;;;;;;4915678;28;89755;-35
2022/01/18 09:25:09;;;;;;;16.50;7.43;;;6.50;99.90;;;;;;4915623;28;88509;-31
2022/01/18 09:27:35;;;;;;;15.35;6.45;;;6.60;99.90;;;;;;4915597;28;89152;-32
2022/01/18 09:30:02;;;;;;;15.10;5.32;;;6.60;99.90;;;;;;4915409;28;89383;-32
2022/01/18 09:32:27;;;;;;;24.23;7.97;;;6.70;99.90;;;;;;4913769;28;88260;-31
2022/01/18 09:34:53;;;;;;;14.63;7.65;;;6.60;99.90;;;;;;4915734;28;87621;-31
2022/01/18 09:37:19;;;;;;;17.55;7.95;;;6.60;99.90;;;;;;4915211;28;89226;-32
2022/01/18 09:39:45;;;;;;;21.80;8.77;;;6.70;99.90;;;;;;4915403;28;89600;-30
2022/01/18 09:42:12;;;;;;;15.48;8.52;;;6.70;99.90;;;;;;4915244;28;89865;-30
2022/01/18 09:44:39;;;;;;;21.05;9.10;;;6.70;99.90;;;;;;4915356;28;88106;-30
2022/01/18 09:47:05;;;;;;;20.00;8.13;;;6.70;99.90;;;;;;4915205;28;89811;-30
2022/01/18 09:49:34;;;;;;;16.67;8.50;;;6.70;99.90;;;;;;4914770;28;89646;-33
2022/01/18 09:52:00;;;;;;;22.05;9.57;;;6.70;99.90;;;;;;4915501;28;89711;-30
2022/01/18 09:54:26;;;;;;;16.98;8.93;;;6.70;99.90;;;;;;4914534;28;87652;-30
2022/01/18 09:56:51;;;;;;;14.27;8.60;;;6.80;99.90;;;;;;4915603;28;90479;-31
2022/01/18 09:59:17;;;;;;;16.75;8.40;;;6.80;99.90;;;;;;4915513;28;89747;-31
2022/01/18 10:01:43;;;;;;;21.67;8.95;;;6.80;99.90;;;;;;4915357;28;89345;-33
2022/01/18 10:04:21;;;;;;;18.42;9.68;;;6.80;99.90;;;;;;4915019;28;87685;-31
2022/01/18 10:06:56;;;;;;;19.08;8.45;;;6.90;99.90;;;;;;4915201;28;90738;-32
2022/01/18 10:09:23;;;;;;;16.42;8.80;;;6.90;99.90;;;;;;4913720;28;88461;-32
2022/01/18 10:12:13;;;;;;;11.68;7.22;;;6.90;99.90;;;;;;4853432;28;89480;-33
2022/01/18 10:14:51;;;;;;;20.55;8.93;;;6.90;99.90;;;;;;4910829;28;87997;-33
2022/01/18 10:17:35;;;;;;;21.83;8.82;;;7.00;99.90;;;;;;4906232;28;89190;-34
2022/01/18 10:20:15;;;;;;;21.40;8.73;;;7.00;99.90;;;;;;4906510;28;90318;-31
2022/01/18 10:22:42;;;;;;;21.50;8.43;;;7.10;99.90;;;;;;4895764;28;87983;-31
2022/01/18 10:25:16;;;;;;;17.63;8.43;;;7.10;99.90;;;;;;4896143;28;87976;-31
2022/01/18 10:27:42;;;;;;;21.35;9.20;;;7.20;99.90;;;;;;4895987;28;90564;-32
2022/01/18 10:30:15;;;;;;;14.95;7.05;;;7.20;99.90;;;;;;4895951;28;90023;-29
2022/01/18 10:32:42;;;;;;;20.25;8.43;;;7.30;99.90;;;;;;4895848;28;89187;-29
2022/01/18 10:35:10;;;;;;;16.23;7.63;;;7.30;99.90;;;;;;4895186;28;87736;-30
2022/01/18 10:37:43;;;;;;;11.52;7.38;;;7.30;99.90;;;;;;4895312;28;90290;-33
2022/01/18 10:40:15;;;;;;;14.43;8.45;;;7.30;99.90;;;;;;4877896;28;91035;-31
2022/01/18 10:42:50;;;;;;;18.15;9.13;;;7.30;99.90;;;;;;4894732;28;90970;-35
2022/01/18 10:45:31;;;;;;;10.75;6.60;;;7.40;99.90;;;;;;4897960;28;87752;-36
2022/01/18 10:47:59;;;;;;;14.93;7.43;;;7.40;99.90;;;;;;4895410;28;90187;-29
2022/01/18 10:50:26;;;;;;;;;;;7.50;99.90;;;;;;4894987;28;89532;-30
2022/01/18 10:52:54;;;;;;;18.77;7.40;;;7.50;99.90;;;;;;4896608;28;89240;-32
2022/01/18 10:55:23;;;;;;;15.43;7.35;;;7.50;99.90;;;;;;4894862;28;88023;-31
2022/01/18 10:57:50;;;;;;;19.67;7.32;;;7.50;99.90;;;;;;4895298;28;89287;-30
2022/01/18 11:00:22;;;;;;;16.48;7.15;;;7.50;99.90;;;;;;4894447;28;88729;-30
2022/01/18 11:02:53;;;;;;;22.77;7.53;;;7.50;99.90;;;;;;4894902;28;89526;-30
2022/01/18 11:05:28;;;;;;;12.98;8.10;;;7.50;99.90;;;;;;4894696;28;89031;-32
2022/01/18 11:07:55;;;;;;;19.15;7.28;;;7.50;99.90;;;;;;4895146;28;89982;-32
2022/01/18 11:10:26;;;;;;;13.00;6.78;;;7.50;99.90;;;;;;4894477;28;89605;-31
2022/01/18 11:12:57;;;;;;;15.43;8.40;;;7.60;99.90;;;;;;4894565;28;89785;-30
2022/01/18 11:15:26;;;;;;;14.10;7.40;;;7.60;99.90;;;;;;4895232;28;87434;-30
2022/01/18 11:18:03;;;;;;;12.32;6.35;;;7.60;99.90;;;;;;4894563;28;90049;-33
2022/01/18 11:20:42;;;;;;;16.90;6.80;;;7.60;99.90;;;;;;4894551;28;89690;-32
2022/01/18 11:23:08;;;;;;;13.52;6.80;;;7.60;99.90;;;;;;4894997;28;89974;-33
2022/01/18 11:25:37;;;;;;;14.88;6.25;;;7.60;99.90;;;;;;4894857;28;87633;-29
2022/01/18 11:28:03;;;;;;;;;;;7.60;99.90;;;;;;4895151;28;89256;-32
2022/01/18 11:30:31;;;;;;;17.08;7.20;;;7.60;99.90;;;;;;4898739;28;90355;-30
2022/01/18 11:33:00;;;;;;;8.90;4.78;;;7.60;99.90;;;;;;4914304;28;90120;-31
2022/01/18 11:35:30;;;;;;;;;;;7.60;99.90;;;;;;4914206;28;88069;-30
2022/01/18 11:38:19;;;;;;;11.82;3.90;;;7.70;99.90;;;;;;4915512;28;89796;-30
2022/01/18 11:40:50;;;;;;;13.05;3.97;;;7.70;99.90;;;;;;4913254;28;89805;-37
2022/01/18 11:43:51;;;;;;;8.88;4.32;;;7.70;99.90;;;;;;4941720;23;87871;-31
2022/01/18 11:46:41;;;;;;;10.57;4.05;;;7.70;99.90;;;;;;4871189;28;88148;-34
2022/01/18 11:49:23;;;;;;;6.70;4.50;;;7.70;99.90;;;;;;4912761;28;90756;-32
2022/01/18 11:51:54;;;;;;;11.93;4.70;;;7.70;99.90;;;;;;4912169;28;89617;-30
2022/01/18 11:56:59;;;;;;;9.00;4.67;;;7.70;99.90;;;;;;4911919;28;88961;-31
2022/01/18 11:59:34;;;;;;;9.30;4.40;;;7.70;99.90;;;;;;4913056;28;90106;-32
2022/01/18 12:02:03;;;;;;;10.02;3.70;;;7.70;99.90;;;;;;4912152;28;88726;-30
2022/01/18 12:07:30;;;;;;;15.82;6.03;;;7.70;99.90;;;;;;4912846;28;88070;-33
2022/01/18 12:09:56;;;;;;;12.45;5.82;;;7.70;99.90;;;;;;4875775;28;90879;-29
2022/01/18 12:12:40;;;;;;;14.88;5.63;;;7.70;99.90;;;;;;4898294;28;89899;-31
2022/01/18 12:15:18;;;;;;;16.17;6.03;;;7.60;99.90;;;;;;4909337;28;88913;-31
2022/01/18 12:18:01;;;;;;;15.38;5.93;;;7.70;99.90;;;;;;4910061;28;88221;-33
2022/01/18 12:20:46;;;;;;;11.27;6.38;;;7.70;99.90;;;;;;4899516;28;88776;-32
2022/01/18 12:23:41;;;;;;;9.93;5.65;;;7.70;99.90;;;;;;4907014;28;91195;-29
2022/01/18 12:27:00;;;;;;;12.30;5.95;;;7.80;99.90;;;;;;4905172;28;90064;-33
2022/01/18 12:34:29;;;;;;;14.90;7.80;;;7.70;99.90;;;;;;4915798;28;89597;-31
2022/01/18 12:39:54;;;;;;;9.43;5.57;;;7.60;99.90;;;;;;4912531;28;88671;-34
2022/01/18 12:45:07;;;;;;;10.68;5.13;;;7.70;99.90;;;;;;4916087;28;89510;-30
2022/01/18 12:47:35;;;;;;;16.98;5.85;;;7.70;99.90;;;;;;4915465;28;89563;-30
2022/01/18 12:50:03;;;;;;;11.13;5.80;;;7.60;99.90;;;;;;4911497;28;88911;-32
2022/01/18 12:52:48;;;;;;;6.93;4.55;;;7.70;99.90;;;;;;4915653;28;90329;-30
2022/01/18 12:55:49;;;;;;;12.60;4.50;;;7.60;99.90;;;;;;4915768;28;89553;-30
2022/01/18 12:58:34;;;;;;;8.60;4.15;;;7.70;99.90;;;;;;4915413;28;89602;-31
2022/01/18 13:01:05;;;;;;;15.88;5.07;;;7.70;99.90;;;;;;4909388;28;87918;-32
2022/01/18 13:03:40;;;;;;;11.18;4.55;;;7.70;99.90;;;;;;4896680;28;88857;-32
2022/01/18 13:06:15;;;;;;;12.90;5.53;;;7.70;99.90;;;;;;4895893;28;90016;-30
2022/01/18 13:08:58;;;;;;;11.88;5.40;;;7.60;99.90;;;;;;4896327;28;89709;-32
2022/01/18 13:11:36;;;;;;;11.15;4.68;;;7.60;99.90;;;;;;4895614;28;88393;-34
2022/01/18 13:14:10;;;;;;;13.00;4.50;;;7.60;99.90;;;;;;4895830;28;89843;-30
2022/01/18 13:27:23;;;;;;;8.27;4.47;;;7.40;99.90;;;;;;4896133;28;90074;-32
2022/01/18 13:29:52;;;;;;;5.75;4.30;;;7.40;99.90;;;;;;4895399;28;88308;-32
2022/01/18 13:32:20;;;;;;;13.65;4.68;;;7.30;99.90;;;;;;4879139;28;88295;-31
2022/01/18 13:34:54;;;;;;;11.00;5.22;;;7.30;99.90;;;;;;4878700;28;88945;-30
2022/01/18 13:37:22;;;;;;;12.18;5.05;;;7.30;99.90;;;;;;4895563;28;89885;-31
2022/01/18 13:39:49;;;;;;;;;;;7.30;99.90;;;;;;4896225;28;89446;-31
2022/01/18 13:42:18;;;;;;;9.50;4.68;;;7.30;99.90;;;;;;4896760;28;88829;-32
2022/01/18 13:45:19;;;;;;;13.10;4.03;;;7.30;99.90;;;;;;4895737;28;90194;-32
2022/01/18 13:47:52;;;;;;;9.63;4.80;;;7.20;99.90;;;;;;4895760;28;88760;-31
2022/01/18 13:50:56;;;;;;;12.48;4.53;;;7.20;99.90;;;;;;4895368;28;89258;-30
2022/01/18 13:53:27;;;;;;;11.77;4.32;;;7.20;99.90;;;;;;4861580;28;87730;-31
2022/01/18 13:56:15;;;;;;;6.80;3.63;;;7.30;99.90;;;;;;4900682;28;88925;-30
2022/01/18 13:58:43;;;;;;;9.82;4.30;;;7.30;99.90;;;;;;4904537;28;89374;-31
2022/01/18 14:01:20;;;;;;;7.00;4.07;;;7.20;99.90;;;;;;4910315;28;90110;-31
2022/01/18 14:04:15;;;;;;;8.40;4.72;;;7.20;99.90;;;;;;4914854;28;88093;-33
2022/01/18 14:06:42;;;;;;;13.60;5.22;;;7.20;99.90;;;;;;4914771;28;89021;-30
2022/01/18 14:09:09;;;;;;;8.38;4.28;;;7.20;99.90;;;;;;4913744;28;90478;-29
2022/01/18 14:11:36;;;;;;;14.73;5.50;;;7.10;99.90;;;;;;4914613;28;90935;-33
2022/01/18 14:14:39;;;;;;;13.43;4.97;;;7.10;99.90;;;;;;4914646;28;87848;-31
2022/01/18 14:17:13;;;;;;;8.70;4.80;;;7.10;99.90;;;;;;4892919;28;89932;-30
2022/01/18 14:19:42;;;;;;;10.50;5.05;;;7.10;99.90;;;;;;4914411;28;89647;-32
2022/01/18 14:22:18;;;;;;;;;;;7.00;99.90;;;;;;4915100;28;90079;-31
2022/01/18 14:24:46;;;;;;;10.00;5.05;;;7.00;99.90;;;;;;4904351;28;88933;-29
2022/01/18 14:27:15;;;;;;;21.38;6.38;;;7.00;99.90;;;;;;4904956;28;90121;-31
2022/01/18 14:29:40;;;;;;;14.10;5.82;;;6.90;99.90;;;;;;4914240;28;88652;-30
2022/01/18 14:32:09;;;;;;;15.98;6.32;;;7.00;99.90;;;;;;4914825;28;88853;-33
2022/01/18 14:34:49;;;;;;;14.68;7.30;;;6.90;99.90;;;;;;4913586;28;88266;-33
2022/01/18 14:37:15;;;;;;;12.48;5.93;;;6.90;99.90;;;;;;4913793;28;90251;-31
2022/01/18 14:39:57;;;;;;;13.70;5.97;;;6.90;99.90;;;;;;4913559;28;90179;-31